Time;durP1;ratioP1;P1;durP2;ratioP2;P2;SDS_P1;SDS_P2;PMS_P1;PMS_P2;Temp;Humidity;BMP_temperature;BMP_pressure;BME280_temperature;BME280_humidity;BME280_pressure;Samples;Min_cycle;Max_cycle;Signal;HPM_P1;HPM_P2
2022/01/10 00:01:57;;;;;;;3.10;1.98;;;10.00;99.90;;;;;;5038535;28;20049;-85
2022/01/10 00:04:22;;;;;;;4.43;3.42;;;9.90;99.90;;;;;;5040623;28;20332;-85
2022/01/10 00:06:48;;;;;;;1.63;1.48;;;9.90;99.90;;;;;;5041320;28;20070;-85
2022/01/10 00:09:14;;;;;;;5.43;2.75;;;9.90;99.90;;;;;;5041855;28;20191;-85
2022/01/10 00:11:40;;;;;;;3.88;1.90;;;9.90;99.90;;;;;;5041725;28;20268;-85
2022/01/10 00:14:06;;;;;;;3.13;1.30;;;9.90;99.90;;;;;;5041619;28;20333;-85
2022/01/10 00:16:31;;;;;;;1.90;0.95;;;9.90;99.90;;;;;;5041595;28;20263;-85
2022/01/10 00:18:57;;;;;;;4.63;1.10;;;9.90;99.90;;;;;;5041048;28;20217;-85
2022/01/10 00:21:23;;;;;;;4.00;1.40;;;9.90;99.90;;;;;;5040243;28;20096;-85
2022/01/10 00:23:48;;;;;;;2.85;1.13;;;9.90;99.90;;;;;;5041703;28;20037;-85
2022/01/10 00:26:14;;;;;;;1.17;0.68;;;10.00;99.90;;;;;;5041508;28;20024;-85
2022/01/10 00:28:40;;;;;;;2.05;1.30;;;10.00;99.90;;;;;;5040381;28;20025;-85
2022/01/10 00:31:06;;;;;;;3.17;1.70;;;10.10;99.90;;;;;;5040373;28;20083;-85
2022/01/10 00:33:32;;;;;;;3.10;1.20;;;10.00;99.90;;;;;;5039716;28;20314;-85
2022/01/10 00:35:57;;;;;;;1.63;0.93;;;10.10;99.90;;;;;;5040354;28;20320;-85
2022/01/10 00:38:23;;;;;;;1.52;0.88;;;10.10;99.90;;;;;;5040393;28;20209;-85
2022/01/10 00:40:50;;;;;;;3.15;1.10;;;10.20;99.90;;;;;;5039292;28;20048;-85
2022/01/10 00:43:29;;;;;;;2.40;1.20;;;10.20;99.90;;;;;;5040094;28;20028;-85
2022/01/10 00:45:55;;;;;;;2.75;2.50;;;10.10;99.90;;;;;;5041417;28;20044;-85
2022/01/10 00:48:21;;;;;;;1.65;1.55;;;10.20;99.90;;;;;;5041585;28;20017;-85
2022/01/10 00:50:46;;;;;;;4.82;2.38;;;10.20;99.90;;;;;;5040274;28;20040;-85
2022/01/10 00:53:12;;;;;;;2.50;2.03;;;10.30;99.90;;;;;;5041502;28;20017;-85
2022/01/10 00:55:38;;;;;;;3.10;2.17;;;10.30;99.90;;;;;;5041657;28;20317;-85
2022/01/10 00:58:03;;;;;;;2.83;2.05;;;10.30;99.90;;;;;;5040966;28;20437;-85
2022/01/10 01:00:29;;;;;;;4.50;2.60;;;10.40;99.90;;;;;;5039971;28;20029;-85
2022/01/10 01:02:58;;;;;;;4.63;3.00;;;10.40;99.90;;;;;;5040499;28;20306;-85
2022/01/10 01:05:24;;;;;;;3.58;2.17;;;10.40;99.90;;;;;;5041167;28;20025;-85
2022/01/10 01:07:50;;;;;;;3.95;2.33;;;10.50;99.90;;;;;;5038705;28;20087;-85
2022/01/10 01:10:54;;;;;;;5.30;2.15;;;10.50;99.90;;;;;;5038446;28;20064;-85
2022/01/10 01:13:34;;;;;;;5.78;3.72;;;10.50;99.90;;;;;;5040968;28;20017;-85
2022/01/10 01:24:02;;;;;;;77.82;7.63;;;10.80;99.90;;;;;;5036450;28;20064;-85
2022/01/10 01:26:34;;;;;;;28.10;3.70;;;10.80;99.90;;;;;;5037516;28;20061;-85
2022/01/10 01:29:01;;;;;;;8.73;1.52;;;10.80;99.90;;;;;;5040682;28;20237;-85
2022/01/10 01:31:27;;;;;;;45.13;4.88;;;10.80;99.90;;;;;;5040506;28;20084;-85
2022/01/10 01:33:52;;;;;;;186.48;18.30;;;10.80;99.90;;;;;;5038890;28;20249;-85
2022/01/10 01:36:23;;;;;;;8.00;1.02;;;10.80;99.90;;;;;;5039188;28;20127;-84
2022/01/10 01:38:50;;;;;;;5.80;1.40;;;10.80;99.90;;;;;;5041197;28;20364;-85
2022/01/10 01:41:36;;;;;;;5.72;1.45;;;10.80;99.90;;;;;;5043355;28;20053;-85
2022/01/10 01:44:03;;;;;;;3.58;0.90;;;10.70;99.90;;;;;;5045164;28;20025;-85
2022/01/10 01:46:29;;;;;;;5.75;1.20;;;10.70;99.90;;;;;;5043852;28;20256;-85
2022/01/10 01:48:56;;;;;;;5.22;1.63;;;10.70;99.90;;;;;;5044088;28;20279;-85
2022/01/10 01:51:23;;;;;;;4.78;1.55;;;10.70;99.90;;;;;;5042037;28;20099;-85
2022/01/10 01:53:49;;;;;;;6.50;2.20;;;10.60;99.90;;;;;;5042981;28;20018;-85
2022/01/10 01:56:16;;;;;;;5.40;1.80;;;10.60;99.90;;;;;;5044563;28;20088;-85
2022/01/10 01:58:44;;;;;;;4.35;2.13;;;10.60;99.90;;;;;;5043041;28;20218;-85
2022/01/10 02:01:11;;;;;;;3.72;1.77;;;10.70;99.90;;;;;;5043978;28;20026;-86
2022/01/10 02:03:38;;;;;;;6.18;2.05;;;10.60;99.90;;;;;;5043594;28;20421;-85
2022/01/10 02:06:07;;;;;;;7.82;1.90;;;10.60;99.90;;;;;;5042391;28;20032;-85
2022/01/10 02:08:34;;;;;;;3.67;1.75;;;10.60;99.90;;;;;;5044217;28;20010;-85
2022/01/10 02:11:00;;;;;;;5.43;1.60;;;10.60;99.90;;;;;;5043544;28;20038;-85
2022/01/10 02:13:26;;;;;;;5.65;2.00;;;10.60;99.90;;;;;;5042209;28;20063;-85
2022/01/10 02:16:04;;;;;;;6.50;2.05;;;10.60;99.90;;;;;;5044319;28;20063;-85
2022/01/10 02:18:30;;;;;;;23.20;3.13;;;10.60;99.90;;;;;;5044022;28;20021;-85
2022/01/10 02:21:05;;;;;;;24.05;3.58;;;10.50;99.90;;;;;;5043215;28;20025;-85
2022/01/10 02:23:32;;;;;;;39.58;5.80;;;10.60;99.90;;;;;;5044035;28;20068;-85
2022/01/10 02:25:57;;;;;;;258.42;31.88;;;10.60;99.90;;;;;;5044112;28;20025;-85
2022/01/10 02:28:24;;;;;;;81.15;10.23;;;10.60;99.90;;;;;;5042429;28;20017;-85
2022/01/10 02:30:57;;;;;;;247.07;28.35;;;10.60;99.90;;;;;;5043573;28;20033;-85
2022/01/10 02:33:29;;;;;;;103.93;11.82;;;10.60;99.90;;;;;;5042819;28;20239;-85
2022/01/10 02:36:23;;;;;;;239.90;25.70;;;10.70;99.90;;;;;;5042961;28;20041;-85
2022/01/10 02:38:51;;;;;;;130.30;14.85;;;10.80;99.90;;;;;;5042685;28;20032;-85
2022/01/10 02:41:40;;;;;;;92.10;10.05;;;10.80;99.90;;;;;;5043867;28;20349;-86
2022/01/10 02:44:13;;;;;;;83.78;9.50;;;10.80;99.90;;;;;;5038607;28;20048;-86
2022/01/10 02:46:40;;;;;;;88.72;9.38;;;10.80;99.90;;;;;;5042364;28;20310;-86
2022/01/10 02:49:23;;;;;;;74.63;11.30;;;10.80;99.90;;;;;;5043400;28;20024;-86
2022/01/10 02:51:48;;;;;;;91.22;10.23;;;10.80;99.90;;;;;;5041949;28;20103;-86
2022/01/10 02:54:14;;;;;;;88.47;11.07;;;10.80;99.90;;;;;;5036325;28;20036;-86
2022/01/10 02:56:47;;;;;;;91.53;10.63;;;10.80;99.90;;;;;;5043597;28;20017;-86
2022/01/10 02:59:13;;;;;;;87.78;9.52;;;10.80;99.90;;;;;;5042050;28;20017;-86
2022/01/10 03:01:39;;;;;;;63.85;8.93;;;10.80;99.90;;;;;;5041865;28;20017;-86
2022/01/10 03:04:05;;;;;;;73.20;8.52;;;10.70;99.90;;;;;;5041400;28;20534;-87
2022/01/10 03:06:32;;;;;;;58.65;7.40;;;10.70;99.90;;;;;;5039815;28;20025;-86
2022/01/10 03:09:04;;;;;;;63.80;7.93;;;10.70;99.90;;;;;;5042293;28;20049;-86
2022/01/10 03:11:30;;;;;;;66.50;7.30;;;10.70;99.90;;;;;;5042942;28;20021;-86
2022/01/10 03:13:56;;;;;;;43.20;6.70;;;10.70;99.90;;;;;;5042843;28;20056;-87
2022/01/10 03:16:21;;;;;;;40.10;5.38;;;10.60;99.90;;;;;;5042936;28;20064;-86
2022/01/10 03:18:47;;;;;;;30.98;5.50;;;10.60;99.90;;;;;;5042613;28;20017;-87
2022/01/10 03:21:14;;;;;;;16.67;4.03;;;10.70;99.90;;;;;;5041530;28;20049;-87
2022/01/10 03:23:40;;;;;;;14.63;3.50;;;10.70;99.90;;;;;;5041478;28;20018;-87
2022/01/10 03:26:05;;;;;;;7.13;3.22;;;10.60;99.90;;;;;;5041812;28;20017;-86
2022/01/10 03:28:31;;;;;;;5.85;3.22;;;10.60;99.90;;;;;;5042496;28;20071;-87
2022/01/10 03:30:56;;;;;;;5.38;3.08;;;10.60;99.90;;;;;;5041281;28;20065;-87
2022/01/10 03:33:22;;;;;;;5.00;2.92;;;10.60;99.90;;;;;;5042476;28;20044;-86
2022/01/10 03:35:49;;;;;;;7.68;3.80;;;10.60;99.90;;;;;;5036203;28;20440;-87
2022/01/10 03:38:15;;;;;;;6.03;3.45;;;10.60;99.90;;;;;;5039368;28;20048;-87
2022/01/10 03:40:41;;;;;;;3.95;3.00;;;10.50;99.90;;;;;;5040746;28;20089;-87
2022/01/10 03:43:06;;;;;;;5.28;3.13;;;10.50;99.90;;;;;;5042447;28;20017;-87
2022/01/10 03:45:32;;;;;;;6.55;3.90;;;10.50;99.90;;;;;;5042352;28;20021;-87
2022/01/10 03:47:58;;;;;;;4.65;3.58;;;10.60;99.90;;;;;;5042142;28;20067;-87
2022/01/10 03:50:23;;;;;;;5.10;3.45;;;10.60;99.90;;;;;;5041249;28;20069;-87
2022/01/10 03:52:49;;;;;;;6.20;4.18;;;10.60;99.90;;;;;;5039564;28;20064;-87
2022/01/10 03:55:15;;;;;;;5.00;3.60;;;10.50;99.90;;;;;;5040680;28;20033;-87
2022/01/10 03:57:40;;;;;;;6.20;3.53;;;10.60;99.90;;;;;;5042208;28;20393;-87
2022/01/10 04:00:08;;;;;;;5.70;4.03;;;10.50;99.90;;;;;;5040045;28;20025;-83
2022/01/10 04:02:35;;;;;;;4.32;3.35;;;10.50;99.90;;;;;;5041896;28;20027;-87
2022/01/10 04:05:01;;;;;;;5.70;4.40;;;10.50;99.90;;;;;;5039516;28;20059;-87
2022/01/10 04:07:26;;;;;;;6.07;4.50;;;10.50;99.90;;;;;;5041785;28;20270;-87
2022/01/10 04:09:52;;;;;;;6.35;4.32;;;10.50;99.90;;;;;;5041880;28;20372;-87
2022/01/10 04:12:18;;;;;;;5.32;4.47;;;10.50;99.90;;;;;;5037570;28;20044;-87
2022/01/10 04:14:44;;;;;;;5.28;4.40;;;10.50;99.90;;;;;;5041338;28;20040;-86
2022/01/10 04:17:10;;;;;;;6.60;5.07;;;10.50;99.90;;;;;;5040220;28;20313;-87
2022/01/10 04:19:35;;;;;;;6.00;4.43;;;10.40;99.90;;;;;;5040943;28;20036;-87
2022/01/10 04:22:03;;;;;;;5.53;4.53;;;10.40;99.90;;;;;;5039943;28;20017;-86
2022/01/10 04:24:29;;;;;;;6.95;4.07;;;10.40;99.90;;;;;;5035893;28;20056;-88
2022/01/10 04:26:55;;;;;;;4.82;3.92;;;10.50;99.90;;;;;;5039982;28;20310;-87
2022/01/10 04:29:20;;;;;;;5.20;4.18;;;10.50;99.90;;;;;;5038859;28;20024;-87
2022/01/10 04:31:46;;;;;;;5.28;3.85;;;10.50;99.90;;;;;;5040897;28;20029;-87
2022/01/10 04:34:12;;;;;;;4.95;4.30;;;10.50;99.90;;;;;;5039486;28;20037;-87
2022/01/10 04:36:38;;;;;;;11.05;4.85;;;10.50;99.90;;;;;;5037145;28;20029;-87
2022/01/10 04:39:04;;;;;;;6.13;3.78;;;10.40;99.90;;;;;;5040960;28;20067;-87
2022/01/10 04:41:30;;;;;;;5.05;4.20;;;10.40;99.90;;;;;;5041718;28;20332;-86
2022/01/10 04:43:55;;;;;;;5.18;4.28;;;10.50;99.90;;;;;;5040340;28;20030;-87
2022/01/10 04:46:21;;;;;;;5.53;4.15;;;10.40;99.90;;;;;;5041528;28;20369;-87
2022/01/10 04:48:47;;;;;;;5.82;4.57;;;10.40;99.90;;;;;;5041440;28;20036;-87
2022/01/10 04:51:17;;;;;;;7.85;4.90;;;10.40;99.90;;;;;;5040923;28;20234;-87
2022/01/10 04:53:46;;;;;;;5.88;4.75;;;10.40;99.90;;;;;;5040937;28;20104;-87
2022/01/10 04:56:13;;;;;;;4.60;3.80;;;10.40;99.90;;;;;;5040849;28;20343;-86
2022/01/10 04:58:40;;;;;;;4.35;3.20;;;10.40;99.90;;;;;;5041791;28;20087;-86
2022/01/10 05:01:06;;;;;;;4.50;3.42;;;10.40;99.90;;;;;;5039374;28;20037;-87
2022/01/10 05:03:32;;;;;;;3.65;2.97;;;10.40;99.90;;;;;;5041397;28;20021;-87
2022/01/10 05:05:58;;;;;;;3.72;2.90;;;10.40;99.90;;;;;;5040387;28;20026;-88
2022/01/10 05:08:24;;;;;;;4.15;2.88;;;10.40;99.90;;;;;;5040943;28;20037;-87
2022/01/10 05:10:50;;;;;;;3.28;2.75;;;10.30;99.90;;;;;;5040528;28;20033;-87
2022/01/10 05:13:16;;;;;;;3.25;2.67;;;10.30;99.90;;;;;;5040292;28;20198;-87
2022/01/10 05:15:49;;;;;;;3.10;2.50;;;10.40;99.90;;;;;;5040616;28;20036;-87
2022/01/10 05:18:15;;;;;;;2.30;1.85;;;10.40;99.90;;;;;;5041323;28;20286;-87
2022/01/10 05:20:41;;;;;;;1.92;1.58;;;10.40;99.90;;;;;;5039395;28;20287;-86
2022/01/10 05:23:07;;;;;;;2.47;1.90;;;10.40;99.90;;;;;;5036608;28;20025;-86
2022/01/10 05:25:36;;;;;;;2.00;1.75;;;10.50;99.90;;;;;;5041132;28;20430;-86
2022/01/10 05:28:04;;;;;;;2.10;1.73;;;10.50;99.90;;;;;;5035832;28;20059;-86
2022/01/10 05:30:30;;;;;;;3.40;1.67;;;10.40;99.90;;;;;;5040415;28;20087;-86
2022/01/10 05:32:56;;;;;;;2.67;1.60;;;10.50;99.90;;;;;;5035602;28;20061;-86
2022/01/10 05:35:22;;;;;;;2.05;1.48;;;10.50;99.90;;;;;;5039117;28;20089;-86
2022/01/10 05:37:47;;;;;;;2.08;1.70;;;10.50;99.90;;;;;;5040667;28;20036;-85
2022/01/10 05:40:14;;;;;;;5.82;2.10;;;10.50;99.90;;;;;;5034712;28;20097;-86
2022/01/10 05:42:40;;;;;;;2.38;2.17;;;10.50;99.90;;;;;;5039453;28;20021;-86
2022/01/10 05:45:06;;;;;;;2.80;2.28;;;10.50;99.90;;;;;;5033132;28;20049;-85
2022/01/10 05:47:39;;;;;;;3.63;2.28;;;10.50;99.90;;;;;;5040196;28;20022;-86
2022/01/10 05:50:06;;;;;;;3.15;2.85;;;10.50;99.90;;;;;;5038359;28;20048;-86
2022/01/10 05:52:32;;;;;;;2.85;2.58;;;10.50;99.90;;;;;;5040201;28;20421;-86
2022/01/10 05:54:57;;;;;;;3.30;3.00;;;10.50;99.90;;;;;;5040134;28;20021;-85
2022/01/10 05:57:23;;;;;;;4.00;3.42;;;10.50;99.90;;;;;;5040933;28;20068;-86
2022/01/10 05:59:49;;;;;;;3.88;3.40;;;10.50;99.90;;;;;;5040780;28;20017;-86
2022/01/10 06:02:15;;;;;;;3.88;3.47;;;10.50;99.90;;;;;;5039769;28;20040;-86
2022/01/10 06:04:41;;;;;;;4.45;4.05;;;10.50;99.90;;;;;;5038923;28;20089;-86
2022/01/10 06:07:07;;;;;;;4.75;3.97;;;10.50;99.90;;;;;;5038688;28;20340;-87
2022/01/10 06:09:32;;;;;;;4.60;4.15;;;10.60;99.90;;;;;;5039196;28;20020;-86
2022/01/10 06:11:58;;;;;;;5.00;4.50;;;10.60;99.90;;;;;;5038553;28;20210;-86
2022/01/10 06:14:24;;;;;;;7.82;5.35;;;10.60;99.90;;;;;;5039999;28;20092;-86
2022/01/10 06:16:49;;;;;;;5.70;5.15;;;10.50;99.90;;;;;;5039222;28;20026;-87
2022/01/10 06:19:15;;;;;;;5.28;4.72;;;10.50;99.90;;;;;;5038644;28;20025;-86
2022/01/10 06:21:41;;;;;;;6.35;5.50;;;10.50;99.90;;;;;;5039823;28;20064;-86
2022/01/10 06:24:07;;;;;;;6.18;5.53;;;10.60;99.90;;;;;;5036358;28;20033;-87
2022/01/10 06:26:33;;;;;;;6.40;5.80;;;10.50;99.90;;;;;;5035932;28;20246;-87
2022/01/10 06:28:58;;;;;;;7.70;6.07;;;10.50;99.90;;;;;;5034092;28;20018;-86
2022/01/10 06:31:24;;;;;;;7.50;6.60;;;10.50;99.90;;;;;;5031666;28;20046;-86
2022/01/10 06:33:50;;;;;;;10.07;6.95;;;10.50;99.90;;;;;;5031717;28;20065;-86
2022/01/10 06:36:16;;;;;;;7.30;6.00;;;10.50;99.90;;;;;;5029977;28;20061;-86
2022/01/10 06:38:42;;;;;;;8.43;7.20;;;10.50;99.90;;;;;;5030160;28;20022;-86
2022/01/10 06:41:08;;;;;;;9.50;7.70;;;10.50;99.90;;;;;;5030367;28;20026;-86
2022/01/10 06:43:34;;;;;;;8.45;6.70;;;10.40;99.90;;;;;;5030370;28;20029;-86
2022/01/10 06:46:00;;;;;;;8.60;6.97;;;10.50;99.90;;;;;;5031880;28;20010;-86
2022/01/10 06:48:26;;;;;;;9.32;6.95;;;10.40;99.90;;;;;;5032245;28;20071;-85
2022/01/10 06:50:51;;;;;;;7.82;5.85;;;10.50;99.90;;;;;;5036342;28;20047;-86
2022/01/10 06:53:17;;;;;;;8.32;5.68;;;10.40;99.90;;;;;;5041097;28;20198;-86
2022/01/10 06:55:44;;;;;;;4.38;3.40;;;10.40;99.90;;;;;;5037675;28;20025;-85
2022/01/10 06:58:09;;;;;;;4.82;3.05;;;10.40;99.90;;;;;;5031415;28;20017;-85
2022/01/10 07:00:36;;;;;;;5.03;3.28;;;10.30;99.90;;;;;;5031371;28;20025;-86
2022/01/10 07:03:02;;;;;;;4.60;3.63;;;10.30;99.90;;;;;;5034365;28;20025;-86
2022/01/10 07:05:28;;;;;;;3.38;2.58;;;10.30;99.90;;;;;;5042901;28;20100;-86
2022/01/10 07:07:55;;;;;;;4.30;3.50;;;10.30;99.90;;;;;;5041708;28;20009;-86
2022/01/10 07:10:21;;;;;;;4.03;3.10;;;10.20;99.90;;;;;;5030996;28;20029;-86
2022/01/10 07:12:46;;;;;;;8.00;5.07;;;10.30;99.90;;;;;;5030163;28;20017;-86
2022/01/10 07:15:13;;;;;;;6.22;4.40;;;10.20;99.90;;;;;;5032862;28;20032;-86
2022/01/10 07:17:38;;;;;;;7.78;5.53;;;10.20;99.90;;;;;;5033012;28;20028;-86
2022/01/10 07:20:05;;;;;;;5.63;3.92;;;10.30;99.90;;;;;;5029993;28;20402;-86
2022/01/10 07:22:30;;;;;;;5.50;4.13;;;10.20;99.90;;;;;;5032493;28;20030;-85
2022/01/10 07:24:56;;;;;;;4.60;3.78;;;10.20;99.90;;;;;;5030418;28;20068;-86
2022/01/10 07:27:22;;;;;;;4.55;3.90;;;10.20;99.90;;;;;;5031580;28;20490;-86
2022/01/10 07:29:50;;;;;;;3.88;3.28;;;10.20;99.90;;;;;;5032349;28;20612;-86
2022/01/10 07:32:17;;;;;;;4.00;3.10;;;10.20;99.90;;;;;;5029702;28;20505;-86
2022/01/10 07:34:43;;;;;;;2.72;2.47;;;10.20;99.90;;;;;;5031066;28;20036;-86
2022/01/10 07:37:09;;;;;;;2.80;2.17;;;10.10;99.90;;;;;;5030331;28;20108;-91
2022/01/10 07:39:34;;;;;;;3.67;2.40;;;10.10;99.90;;;;;;5031671;28;20041;-90
2022/01/10 07:42:00;;;;;;;2.78;2.30;;;10.20;99.90;;;;;;5030025;28;20040;-91
2022/01/10 07:44:26;;;;;;;2.67;2.15;;;10.10;99.90;;;;;;5031427;28;20033;-89
2022/01/10 07:46:52;;;;;;;3.22;2.70;;;10.10;99.90;;;;;;5031341;28;20021;-90
2022/01/10 07:49:18;;;;;;;2.90;2.58;;;10.20;99.90;;;;;;5030201;28;20318;-91
2022/01/10 07:51:43;;;;;;;3.45;2.42;;;10.20;99.90;;;;;;5032764;28;20083;-90
2022/01/10 07:54:09;;;;;;;4.82;2.50;;;10.20;99.90;;;;;;5037924;28;20086;-91
2022/01/10 07:56:35;;;;;;;4.32;2.28;;;10.30;99.90;;;;;;5031026;28;20045;-90
2022/01/10 07:59:00;;;;;;;2.50;2.13;;;10.20;99.90;;;;;;5030826;28;20017;-91
2022/01/10 08:01:26;;;;;;;2.40;2.20;;;10.30;99.90;;;;;;5031240;28;20025;-90
2022/01/10 08:03:52;;;;;;;3.40;2.38;;;10.30;99.90;;;;;;5029797;28;20021;-90
2022/01/10 08:06:19;;;;;;;2.83;2.38;;;10.30;99.90;;;;;;5029318;28;20215;-90
2022/01/10 08:08:45;;;;;;;3.05;2.45;;;10.30;99.90;;;;;;5031120;28;20056;-90
2022/01/10 08:11:11;;;;;;;3.35;2.60;;;10.30;99.90;;;;;;5030768;28;20065;-90
2022/01/10 08:13:37;;;;;;;2.88;2.28;;;10.40;99.90;;;;;;5031103;28;20033;-90
2022/01/10 08:16:04;;;;;;;4.10;3.00;;;10.30;99.90;;;;;;5029645;28;20489;-90
2022/01/10 08:18:31;;;;;;;2.97;2.60;;;10.30;99.90;;;;;;5029428;28;20029;-90
2022/01/10 08:20:58;;;;;;;5.03;3.70;;;10.40;99.90;;;;;;5029217;28;20049;-90
2022/01/10 08:23:23;;;;;;;4.80;3.83;;;10.40;99.90;;;;;;5030832;28;20035;-90
2022/01/10 08:25:49;;;;;;;3.80;3.50;;;10.30;99.90;;;;;;5029691;28;20025;-91
2022/01/10 08:28:15;;;;;;;3.22;2.30;;;10.30;99.90;;;;;;5029693;28;20037;-91
2022/01/10 08:30:41;;;;;;;2.38;2.17;;;10.30;99.90;;;;;;5030957;28;20030;-91
2022/01/10 08:33:06;;;;;;;4.03;2.92;;;10.30;99.90;;;;;;5029600;28;20053;-91
2022/01/10 08:35:33;;;;;;;3.40;2.72;;;10.40;99.90;;;;;;5029415;28;20465;-90
2022/01/10 08:37:59;;;;;;;3.95;3.03;;;10.40;99.90;;;;;;5029079;28;20029;-90
2022/01/10 08:40:25;;;;;;;4.57;4.13;;;10.40;99.90;;;;;;5030585;28;20112;-90
2022/01/10 08:42:51;;;;;;;4.10;3.70;;;10.40;99.90;;;;;;5031005;28;20029;-90
2022/01/10 08:45:16;;;;;;;4.80;4.07;;;10.40;99.90;;;;;;5029031;28;20025;-90
2022/01/10 08:47:42;;;;;;;4.65;4.15;;;10.40;99.90;;;;;;5028723;28;20393;-90
2022/01/10 08:50:10;;;;;;;4.75;4.00;;;10.40;99.90;;;;;;5028520;28;20033;-90
2022/01/10 08:52:37;;;;;;;4.75;3.70;;;10.50;99.90;;;;;;5028932;28;20159;-90
2022/01/10 08:55:03;;;;;;;3.50;3.20;;;10.50;99.90;;;;;;5028907;28;20022;-89
2022/01/10 08:57:29;;;;;;;4.15;3.33;;;10.60;99.90;;;;;;5030306;28;20021;-90
2022/01/10 08:59:55;;;;;;;4.32;3.00;;;10.60;99.90;;;;;;5028878;28;20021;-90
2022/01/10 09:02:21;;;;;;;3.35;2.85;;;10.60;99.90;;;;;;5028703;28;20115;-90
2022/01/10 09:04:47;;;;;;;3.08;2.78;;;10.60;99.90;;;;;;5029238;28;20036;-90
2022/01/10 09:07:13;;;;;;;2.80;2.22;;;10.60;99.90;;;;;;5028487;28;20287;-90
2022/01/10 09:09:39;;;;;;;2.25;1.88;;;10.70;99.90;;;;;;5029904;28;20027;-90
2022/01/10 09:12:06;;;;;;;3.13;2.53;;;10.70;99.90;;;;;;5029086;28;20029;-90
2022/01/10 09:14:32;;;;;;;6.00;3.55;;;10.70;99.90;;;;;;5030099;28;20034;-90
2022/01/10 09:16:58;;;;;;;3.90;3.47;;;10.70;99.90;;;;;;5029796;28;20083;-90
2022/01/10 09:19:23;;;;;;;3.90;3.50;;;10.70;99.90;;;;;;5030216;28;20523;-90
2022/01/10 09:21:49;;;;;;;3.83;3.40;;;10.70;99.90;;;;;;5028125;28;20563;-90
2022/01/10 09:24:15;;;;;;;4.65;2.88;;;10.70;99.90;;;;;;5028771;28;20059;-90
2022/01/10 09:26:41;;;;;;;5.70;2.88;;;10.60;99.90;;;;;;5028774;28;20421;-90
2022/01/10 09:29:07;;;;;;;2.30;1.90;;;10.60;99.90;;;;;;5029995;28;20025;-91
2022/01/10 09:31:33;;;;;;;2.55;1.83;;;10.50;99.90;;;;;;5029830;28;20039;-90
2022/01/10 09:34:00;;;;;;;2.58;1.90;;;10.40;99.90;;;;;;5030140;28;20041;-90
2022/01/10 09:36:28;;;;;;;3.05;2.47;;;10.40;99.90;;;;;;5031856;28;20030;-90
2022/01/10 09:38:57;;;;;;;2.97;2.15;;;10.40;99.90;;;;;;5033220;28;20033;-90
2022/01/10 09:41:24;;;;;;;1.77;1.58;;;10.40;99.90;;;;;;5028278;28;20486;-89
2022/01/10 09:43:56;;;;;;;3.00;1.70;;;10.30;99.90;;;;;;5030878;28;20030;-91
2022/01/10 09:46:24;;;;;;;2.17;1.92;;;10.30;99.90;;;;;;5030609;28;20486;-90
2022/01/10 09:48:51;;;;;;;2.10;1.70;;;10.30;99.90;;;;;;5028562;28;20437;-90
2022/01/10 09:51:17;;;;;;;2.40;1.60;;;10.40;99.90;;;;;;5029355;28;20509;-90
2022/01/10 09:53:42;;;;;;;2.55;1.65;;;10.40;99.90;;;;;;5028436;28;20025;-89
2022/01/10 09:56:08;;;;;;;2.17;1.45;;;10.40;99.90;;;;;;5028216;28;20414;-89
2022/01/10 09:58:34;;;;;;;1.75;1.25;;;10.40;99.90;;;;;;5029286;28;20459;-89
2022/01/10 10:01:01;;;;;;;1.85;1.42;;;10.40;99.90;;;;;;5031322;28;20026;-89
2022/01/10 10:03:27;;;;;;;2.55;1.48;;;10.40;99.90;;;;;;5031765;28;20051;-89
2022/01/10 10:05:54;;;;;;;1.70;1.40;;;10.40;99.90;;;;;;5031461;28;20059;-89
2022/01/10 10:08:24;;;;;;;2.60;1.20;;;10.40;99.90;;;;;;5033138;28;20026;-89
2022/01/10 10:10:51;;;;;;;2.20;1.08;;;10.30;99.90;;;;;;5031731;28;20033;-89
2022/01/10 10:13:18;;;;;;;2.70;0.70;;;10.20;99.90;;;;;;5032881;28;20250;-89
2022/01/10 10:15:45;;;;;;;2.72;0.68;;;10.20;99.90;;;;;;5031646;28;20445;-89
2022/01/10 10:18:13;;;;;;;1.13;0.70;;;10.20;99.90;;;;;;5032568;28;20029;-89
2022/01/10 10:20:43;;;;;;;1.75;0.90;;;10.20;99.90;;;;;;5032443;28;20437;-89
2022/01/10 10:23:14;;;;;;;1.55;0.60;;;10.20;99.90;;;;;;5032708;28;20034;-89
2022/01/10 10:25:51;;;;;;;1.23;0.50;;;10.10;99.90;;;;;;5032802;28;20071;-89
2022/01/10 10:28:17;;;;;;;1.67;0.65;;;10.10;99.90;;;;;;5031258;28;20061;-90
2022/01/10 10:30:43;;;;;;;2.30;1.30;;;10.10;99.90;;;;;;5031440;28;20076;-89
2022/01/10 10:33:16;;;;;;;1.40;0.90;;;10.10;99.90;;;;;;5032606;28;20089;-89
2022/01/10 10:35:43;;;;;;;1.52;0.70;;;10.20;99.90;;;;;;5030965;28;20030;-89
2022/01/10 10:38:09;;;;;;;1.50;0.70;;;10.20;99.90;;;;;;5031085;28;20022;-89
2022/01/10 10:40:44;;;;;;;1.42;0.60;;;10.30;99.90;;;;;;5032406;28;20452;-89
2022/01/10 10:43:10;;;;;;;1.58;0.88;;;10.30;99.90;;;;;;5032248;28;20517;-89
2022/01/10 10:45:37;;;;;;;3.00;1.05;;;10.40;99.90;;;;;;5032618;28;20022;-89
2022/01/10 10:48:07;;;;;;;3.95;2.22;;;10.50;99.90;;;;;;5032459;28;20021;-90
2022/01/10 10:50:47;;;;;;;3.67;1.63;;;10.50;99.90;;;;;;5032180;28;20074;-88
2022/01/10 10:53:14;;;;;;;1.90;1.33;;;10.60;99.90;;;;;;5031077;28;20037;-89
2022/01/10 10:55:42;;;;;;;3.25;1.55;;;10.60;99.90;;;;;;5031334;28;20021;-89
2022/01/10 10:58:09;;;;;;;1.67;1.10;;;10.50;99.90;;;;;;5031100;28;20025;-89
2022/01/10 11:00:36;;;;;;;2.15;1.40;;;10.50;99.90;;;;;;5031947;28;20036;-89
2022/01/10 11:03:03;;;;;;;3.10;1.27;;;10.50;99.90;;;;;;5030704;28;20029;-90
2022/01/10 11:05:29;;;;;;;4.10;0.90;;;10.50;99.90;;;;;;5031923;28;20017;-89
2022/01/10 11:07:55;;;;;;;2.72;1.02;;;10.40;99.90;;;;;;5032011;28;20026;-88
2022/01/10 11:10:22;;;;;;;2.33;1.10;;;10.40;99.90;;;;;;5030552;28;20048;-89
2022/01/10 11:12:56;;;;;;;2.55;1.00;;;10.30;99.90;;;;;;5031210;28;20113;-88
2022/01/10 11:15:23;;;;;;;2.60;1.27;;;10.40;99.90;;;;;;5032044;28;20026;-89
2022/01/10 11:17:53;;;;;;;3.72;1.85;;;10.40;99.90;;;;;;5031917;28;20013;-89
2022/01/10 11:20:24;;;;;;;2.33;0.93;;;10.50;99.90;;;;;;5031066;28;20029;-89
2022/01/10 11:22:56;;;;;;;3.17;1.35;;;10.40;99.90;;;;;;5030384;28;20112;-89
2022/01/10 11:25:31;;;;;;;4.85;1.35;;;10.50;99.90;;;;;;5030364;28;20108;-89
2022/01/10 11:28:05;;;;;;;3.47;1.70;;;10.60;99.90;;;;;;5024148;28;20397;-89
2022/01/10 11:30:40;;;;;;;5.23;1.50;;;10.60;99.90;;;;;;5035515;28;20026;-89
2022/01/10 11:33:14;;;;;;;2.60;1.55;;;10.40;99.90;;;;;;5030047;28;20296;-89
2022/01/10 11:35:46;;;;;;;1.63;1.00;;;10.40;99.90;;;;;;5033026;28;20032;-89
2022/01/10 11:38:32;;;;;;;2.33;1.58;;;10.50;99.90;;;;;;5033631;28;20083;-89
2022/01/10 11:40:57;;;;;;;1.38;0.93;;;10.60;99.90;;;;;;5036423;28;20029;-88
2022/01/10 11:43:38;;;;;;;2.92;1.35;;;10.70;99.90;;;;;;5031315;28;20025;-89
2022/01/10 11:46:18;;;;;;;1.52;0.90;;;10.80;99.90;;;;;;5030068;28;20026;-89
2022/01/10 11:48:50;;;;;;;2.08;1.20;;;10.90;99.90;;;;;;5029936;28;20281;-88
2022/01/10 11:51:39;;;;;;;2.55;1.70;;;11.00;99.90;;;;;;5029221;28;20037;-89
2022/01/10 11:54:16;;;;;;;2.67;1.13;;;11.10;99.90;;;;;;5031327;28;20026;-89
2022/01/10 11:56:47;;;;;;;2.22;1.40;;;11.00;99.90;;;;;;5030805;28;20083;-89
2022/01/10 11:59:20;;;;;;;2.50;1.00;;;11.00;99.90;;;;;;5024554;28;20022;-89
2022/01/10 12:01:51;;;;;;;2.40;1.20;;;11.00;99.90;;;;;;5030955;28;20056;-89
2022/01/10 12:04:18;;;;;;;2.72;1.92;;;10.90;99.90;;;;;;5032057;28;20021;-88
2022/01/10 12:06:45;;;;;;;1.63;0.90;;;10.90;99.90;;;;;;5031381;28;20025;-89
2022/01/10 12:09:11;;;;;;;2.08;1.13;;;10.90;99.90;;;;;;5029535;28;20033;-89
2022/01/10 12:11:40;;;;;;;2.35;1.27;;;10.90;99.90;;;;;;5030737;28;20033;-88
2022/01/10 12:14:07;;;;;;;3.00;0.85;;;10.90;99.90;;;;;;5029287;28;20029;-88
2022/01/10 12:16:34;;;;;;;3.20;1.92;;;10.90;99.90;;;;;;5030811;28;20021;-89
2022/01/10 12:19:00;;;;;;;3.30;1.95;;;11.00;99.90;;;;;;5030350;28;20425;-89
2022/01/10 12:21:27;;;;;;;2.10;1.50;;;11.00;99.90;;;;;;5030157;28;20028;-89
2022/01/10 12:23:53;;;;;;;2.95;1.10;;;11.10;99.90;;;;;;5029060;28;20350;-88
2022/01/10 12:26:23;;;;;;;1.40;1.00;;;11.00;99.90;;;;;;5030655;28;20375;-89
2022/01/10 12:28:53;;;;;;;2.88;1.52;;;11.00;99.90;;;;;;5024636;28;20056;-89
2022/01/10 12:31:22;;;;;;;2.78;2.15;;;11.00;99.90;;;;;;5028937;28;20527;-89
2022/01/10 12:33:49;;;;;;;3.28;2.45;;;11.10;99.90;;;;;;5030286;28;20085;-89
2022/01/10 12:36:16;;;;;;;2.78;1.75;;;11.10;99.90;;;;;;5029847;28;20428;-88
2022/01/10 12:38:43;;;;;;;2.35;1.05;;;11.20;99.90;;;;;;5030096;28;20021;-89
2022/01/10 12:41:09;;;;;;;1.85;1.10;;;11.20;99.90;;;;;;5030463;28;20030;-89
2022/01/10 12:43:35;;;;;;;4.03;1.95;;;11.10;99.90;;;;;;5028987;28;20492;-89
2022/01/10 12:46:01;;;;;;;7.10;3.75;;;11.00;99.90;;;;;;5028869;28;20029;-89
2022/01/10 12:48:27;;;;;;;3.50;1.50;;;11.10;99.90;;;;;;5030133;28;20553;-89
2022/01/10 12:50:54;;;;;;;2.90;0.80;;;11.10;99.90;;;;;;5030307;28;20116;-90
2022/01/10 12:53:22;;;;;;;2.15;1.33;;;11.20;99.90;;;;;;5030156;28;20327;-89
2022/01/10 12:55:48;;;;;;;3.33;2.65;;;11.30;99.90;;;;;;5028892;28;20590;-89